sensor_id;sensor_type;location;lat;lon;timestamp;P1;durP1;ratioP1;P2;durP2;ratioP2
57323;SDS011;43160;51.008;18.248;2024-02-21T00:06:31;12.40;;;3.10;;
57323;SDS011;43160;51.008;18.248;2024-02-21T00:16:16;12.90;;;3.70;;
57323;SDS011;43160;51.008;18.248;2024-02-21T00:26:00;13.70;;;4.70;;
57323;SDS011;43160;51.008;18.248;2024-02-21T00:35:44;18.10;;;3.60;;
57323;SDS011;43160;51.008;18.248;2024-02-21T00:45:28;18.80;;;6.00;;
57323;SDS011;43160;51.008;18.248;2024-02-21T00:55:11;15.10;;;5.00;;
57323;SDS011;43160;51.008;18.248;2024-02-21T01:04:57;15.90;;;3.00;;
57323;SDS011;43160;51.008;18.248;2024-02-21T01:14:42;19.40;;;5.20;;
57323;SDS011;43160;51.008;18.248;2024-02-21T01:24:25;15.20;;;4.50;;
57323;SDS011;43160;51.008;18.248;2024-02-21T01:34:08;14.40;;;5.00;;
57323;SDS011;43160;51.008;18.248;2024-02-21T01:43:54;24.60;;;4.80;;
57323;SDS011;43160;51.008;18.248;2024-02-21T01:53:40;12.00;;;4.90;;
57323;SDS011;43160;51.008;18.248;2024-02-21T02:03:28;11.80;;;3.20;;
57323;SDS011;43160;51.008;18.248;2024-02-21T02:13:17;12.50;;;4.40;;
57323;SDS011;43160;51.008;18.248;2024-02-21T02:23:10;0.40;;;0.40;;
57323;SDS011;43160;51.008;18.248;2024-02-21T02:33:05;21.00;;;7.60;;
57323;SDS011;43160;51.008;18.248;2024-02-21T02:42:49;20.40;;;4.80;;
57323;SDS011;43160;51.008;18.248;2024-02-21T02:52:33;20.20;;;4.00;;
57323;SDS011;43160;51.008;18.248;2024-02-21T03:02:18;24.40;;;4.70;;
57323;SDS011;43160;51.008;18.248;2024-02-21T03:12:04;26.40;;;5.00;;
57323;SDS011;43160;51.008;18.248;2024-02-21T03:21:49;15.10;;;5.30;;
57323;SDS011;43160;51.008;18.248;2024-02-21T03:31:34;9.80;;;4.00;;
57323;SDS011;43160;51.008;18.248;2024-02-21T03:41:17;7.10;;;2.90;;
57323;SDS011;43160;51.008;18.248;2024-02-21T03:51:01;15.10;;;5.50;;
57323;SDS011;43160;51.008;18.248;2024-02-21T04:00:46;13.00;;;4.70;;
57323;SDS011;43160;51.008;18.248;2024-02-21T04:10:33;3.80;;;1.60;;
57323;SDS011;43160;51.008;18.248;2024-02-21T04:20:16;25.20;;;9.70;;
57323;SDS011;43160;51.008;18.248;2024-02-21T04:30:00;12.60;;;7.00;;
57323;SDS011;43160;51.008;18.248;2024-02-21T04:39:44;6.90;;;2.10;;
57323;SDS011;43160;51.008;18.248;2024-02-21T04:49:29;9.70;;;4.70;;
57323;SDS011;43160;51.008;18.248;2024-02-21T04:59:13;11.60;;;3.70;;
57323;SDS011;43160;51.008;18.248;2024-02-21T05:08:56;35.90;;;9.40;;
57323;SDS011;43160;51.008;18.248;2024-02-21T05:18:41;10.00;;;3.60;;
57323;SDS011;43160;51.008;18.248;2024-02-21T05:28:25;13.50;;;4.80;;
57323;SDS011;43160;51.008;18.248;2024-02-21T05:38:14;10.30;;;3.70;;
57323;SDS011;43160;51.008;18.248;2024-02-21T05:47:58;32.10;;;9.10;;
57323;SDS011;43160;51.008;18.248;2024-02-21T05:57:45;14.40;;;3.00;;
57323;SDS011;43160;51.008;18.248;2024-02-21T06:07:28;10.30;;;3.70;;
57323;SDS011;43160;51.008;18.248;2024-02-21T06:17:11;13.70;;;5.20;;
57323;SDS011;43160;51.008;18.248;2024-02-21T06:26:59;9.40;;;4.00;;
57323;SDS011;43160;51.008;18.248;2024-02-21T06:36:44;19.60;;;5.90;;
57323;SDS011;43160;51.008;18.248;2024-02-21T06:46:29;26.90;;;5.30;;
57323;SDS011;43160;51.008;18.248;2024-02-21T06:56:17;11.90;;;5.10;;
57323;SDS011;43160;51.008;18.248;2024-02-21T07:06:00;16.90;;;6.00;;
57323;SDS011;43160;51.008;18.248;2024-02-21T07:15:43;20.80;;;4.40;;
57323;SDS011;43160;51.008;18.248;2024-02-21T07:25:30;9.90;;;3.90;;
57323;SDS011;43160;51.008;18.248;2024-02-21T07:35:17;8.60;;;2.70;;
57323;SDS011;43160;51.008;18.248;2024-02-21T07:45:04;21.50;;;5.20;;
57323;SDS011;43160;51.008;18.248;2024-02-21T07:54:47;23.50;;;6.60;;
57323;SDS011;43160;51.008;18.248;2024-02-21T08:04:32;31.40;;;5.30;;
57323;SDS011;43160;51.008;18.248;2024-02-21T08:14:19;16.30;;;5.00;;
57323;SDS011;43160;51.008;18.248;2024-02-21T08:24:02;15.00;;;5.10;;
57323;SDS011;43160;51.008;18.248;2024-02-21T08:33:59;16.60;;;5.50;;
57323;SDS011;43160;51.008;18.248;2024-02-21T08:43:56;23.70;;;4.80;;
57323;SDS011;43160;51.008;18.248;2024-02-21T08:53:45;16.00;;;6.10;;
57323;SDS011;43160;51.008;18.248;2024-02-21T09:03:32;12.70;;;4.60;;
57323;SDS011;43160;51.008;18.248;2024-02-21T09:13:17;18.70;;;4.40;;
57323;SDS011;43160;51.008;18.248;2024-02-21T09:23:00;15.90;;;5.70;;
57323;SDS011;43160;51.008;18.248;2024-02-21T09:32:45;17.50;;;5.80;;
57323;SDS011;43160;51.008;18.248;2024-02-21T09:42:35;17.20;;;5.80;;
57323;SDS011;43160;51.008;18.248;2024-02-21T09:52:37;14.10;;;3.10;;
57323;SDS011;43160;51.008;18.248;2024-02-21T10:02:24;9.50;;;3.20;;
57323;SDS011;43160;51.008;18.248;2024-02-21T10:12:13;8.50;;;3.60;;
57323;SDS011;43160;51.008;18.248;2024-02-21T10:41:57;12.30;;;4.20;;
57323;SDS011;43160;51.008;18.248;2024-02-21T10:52:06;11.70;;;4.30;;
57323;SDS011;43160;51.008;18.248;2024-02-21T11:02:04;17.50;;;5.40;;
57323;SDS011;43160;51.008;18.248;2024-02-21T11:11:57;12.70;;;4.90;;
57323;SDS011;43160;51.008;18.248;2024-02-21T11:21:50;14.30;;;7.90;;
57323;SDS011;43160;51.008;18.248;2024-02-21T11:31:51;20.40;;;6.20;;
57323;SDS011;43160;51.008;18.248;2024-02-21T11:41:44;15.00;;;4.80;;
57323;SDS011;43160;51.008;18.248;2024-02-21T11:51:29;9.90;;;3.40;;
57323;SDS011;43160;51.008;18.248;2024-02-21T11:58:48;18.60;;;6.10;;
57323;SDS011;43160;51.008;18.248;2024-02-21T12:08:43;22.70;;;6.80;;
57323;SDS011;43160;51.008;18.248;2024-02-21T12:18:34;12.60;;;5.00;;
57323;SDS011;43160;51.008;18.248;2024-02-21T12:28:21;19.40;;;5.90;;
57323;SDS011;43160;51.008;18.248;2024-02-21T12:38:08;17.00;;;6.30;;
57323;SDS011;43160;51.008;18.248;2024-02-21T12:47:55;40.30;;;6.60;;
57323;SDS011;43160;51.008;18.248;2024-02-21T12:57:43;25.40;;;5.80;;
57323;SDS011;43160;51.008;18.248;2024-02-21T13:07:28;13.50;;;5.00;;
57323;SDS011;43160;51.008;18.248;2024-02-21T13:17:14;17.50;;;5.20;;
57323;SDS011;43160;51.008;18.248;2024-02-21T13:27:01;26.30;;;6.20;;
57323;SDS011;43160;51.008;18.248;2024-02-21T13:36:45;26.20;;;6.80;;
57323;SDS011;43160;51.008;18.248;2024-02-21T13:46:34;25.30;;;5.90;;
57323;SDS011;43160;51.008;18.248;2024-02-21T13:56:30;14.90;;;5.70;;
57323;SDS011;43160;51.008;18.248;2024-02-21T14:06:15;20.80;;;5.70;;
57323;SDS011;43160;51.008;18.248;2024-02-21T14:15:59;17.80;;;4.90;;
57323;SDS011;43160;51.008;18.248;2024-02-21T14:25:44;20.50;;;6.30;;
57323;SDS011;43160;51.008;18.248;2024-02-21T14:35:28;13.80;;;6.40;;
57323;SDS011;43160;51.008;18.248;2024-02-21T14:45:14;15.80;;;5.30;;
57323;SDS011;43160;51.008;18.248;2024-02-21T14:55:00;19.60;;;9.50;;
57323;SDS011;43160;51.008;18.248;2024-02-21T15:04:48;24.60;;;9.80;;
57323;SDS011;43160;51.008;18.248;2024-02-21T15:14:32;16.50;;;7.20;;
57323;SDS011;43160;51.008;18.248;2024-02-21T15:24:15;14.70;;;6.60;;
57323;SDS011;43160;51.008;18.248;2024-02-21T15:34:00;23.20;;;7.40;;
57323;SDS011;43160;51.008;18.248;2024-02-21T15:43:46;21.40;;;6.50;;
57323;SDS011;43160;51.008;18.248;2024-02-21T15:53:31;21.00;;;7.40;;
57323;SDS011;43160;51.008;18.248;2024-02-21T16:03:16;18.70;;;7.20;;
57323;SDS011;43160;51.008;18.248;2024-02-21T16:12:59;26.30;;;9.50;;
57323;SDS011;43160;51.008;18.248;2024-02-21T16:22:43;24.90;;;7.50;;
57323;SDS011;43160;51.008;18.248;2024-02-21T16:32:28;19.50;;;8.30;;
57323;SDS011;43160;51.008;18.248;2024-02-21T16:42:13;30.40;;;7.80;;
57323;SDS011;43160;51.008;18.248;2024-02-21T16:51:57;10.90;;;4.50;;
57323;SDS011;43160;51.008;18.248;2024-02-21T17:01:44;29.80;;;10.60;;
57323;SDS011;43160;51.008;18.248;2024-02-21T17:11:29;33.20;;;12.90;;
57323;SDS011;43160;51.008;18.248;2024-02-21T17:21:13;53.60;;;22.10;;
57323;SDS011;43160;51.008;18.248;2024-02-21T17:38:18;38.60;;;18.10;;
57323;SDS011;43160;51.008;18.248;2024-02-21T17:48:05;28.20;;;13.00;;
57323;SDS011;43160;51.008;18.248;2024-02-21T17:57:51;37.00;;;14.90;;
57323;SDS011;43160;51.008;18.248;2024-02-21T18:07:37;33.60;;;14.50;;
57323;SDS011;43160;51.008;18.248;2024-02-21T18:17:22;17.00;;;8.00;;
57323;SDS011;43160;51.008;18.248;2024-02-21T18:27:06;28.20;;;11.70;;
57323;SDS011;43160;51.008;18.248;2024-02-21T18:36:51;20.90;;;8.80;;
57323;SDS011;43160;51.008;18.248;2024-02-21T18:46:40;20.00;;;8.60;;
57323;SDS011;43160;51.008;18.248;2024-02-21T18:56:25;29.20;;;11.30;;
57323;SDS011;43160;51.008;18.248;2024-02-21T19:06:13;15.40;;;7.50;;
57323;SDS011;43160;51.008;18.248;2024-02-21T19:16:01;34.90;;;10.30;;
57323;SDS011;43160;51.008;18.248;2024-02-21T19:25:46;20.20;;;9.10;;
57323;SDS011;43160;51.008;18.248;2024-02-21T19:35:35;21.20;;;7.90;;
57323;SDS011;43160;51.008;18.248;2024-02-21T19:45:22;25.40;;;9.50;;
57323;SDS011;43160;51.008;18.248;2024-02-21T19:55:16;28.40;;;10.10;;
57323;SDS011;43160;51.008;18.248;2024-02-21T20:05:01;20.70;;;8.10;;
57323;SDS011;43160;51.008;18.248;2024-02-21T20:14:46;32.20;;;7.50;;
57323;SDS011;43160;51.008;18.248;2024-02-21T20:24:31;22.90;;;8.20;;
57323;SDS011;43160;51.008;18.248;2024-02-21T20:34:16;28.90;;;8.20;;
57323;SDS011;43160;51.008;18.248;2024-02-21T20:44:04;21.80;;;8.80;;
57323;SDS011;43160;51.008;18.248;2024-02-21T20:53:48;24.70;;;9.30;;
57323;SDS011;43160;51.008;18.248;2024-02-21T21:03:33;26.70;;;8.70;;
57323;SDS011;43160;51.008;18.248;2024-02-21T21:13:20;23.20;;;8.50;;
57323;SDS011;43160;51.008;18.248;2024-02-21T21:23:06;30.90;;;10.50;;
57323;SDS011;43160;51.008;18.248;2024-02-21T21:32:59;36.20;;;10.30;;
57323;SDS011;43160;51.008;18.248;2024-02-21T21:42:44;31.90;;;12.00;;
57323;SDS011;43160;51.008;18.248;2024-02-21T21:52:28;28.70;;;10.00;;
57323;SDS011;43160;51.008;18.248;2024-02-21T22:02:11;28.80;;;10.60;;
57323;SDS011;43160;51.008;18.248;2024-02-21T22:11:55;23.10;;;6.50;;
57323;SDS011;43160;51.008;18.248;2024-02-21T22:21:39;19.50;;;6.70;;
57323;SDS011;43160;51.008;18.248;2024-02-21T22:31:23;41.90;;;9.40;;
57323;SDS011;43160;51.008;18.248;2024-02-21T22:41:07;6.00;;;1.80;;
57323;SDS011;43160;51.008;18.248;2024-02-21T22:50:51;21.40;;;7.10;;
57323;SDS011;43160;51.008;18.248;2024-02-21T23:00:34;13.70;;;5.90;;
57323;SDS011;43160;51.008;18.248;2024-02-21T23:17:40;11.40;;;5.60;;
57323;SDS011;43160;51.008;18.248;2024-02-21T23:27:25;22.00;;;5.40;;
57323;SDS011;43160;51.008;18.248;2024-02-21T23:37:11;23.40;;;5.20;;
57323;SDS011;43160;51.008;18.248;2024-02-21T23:46:55;25.00;;;6.20;;
57323;SDS011;43160;51.008;18.248;2024-02-21T23:56:42;20.50;;;5.70;;
